Observations for Trim Market St
| Time | AQI | Temp °C | Hum % | Pres Pa | CO μg/m³ | H₂S μg/m³ | NO μg/m³ | NO₂ μg/m³ | O₃ μg/m³ | SO₂ μg/m³ | PM1 μg/m³ | PM2.5 μg/m³ | PM10 μg/m³ |
|---|---|---|---|---|---|---|---|---|---|---|---|---|---|
| Monday 24 August 2026 | |||||||||||||
| 00:06 | 2 | 11.8 | 69 | 56,612 | 0.42 | 0 | 3.02 | 12.85 | 35.4 | 0 | 1.43 | 3.57 | 5.64 |
| 00:05 | 2 | 11.9 | 69 | 56,631 | 0.42 | 0 | 2.97 | 13.66 | 35.28 | 0 | 1.43 | 2.12 | 5 |
| 00:03 | 2 | 11.9 | 69 | 56,674 | 0.44 | 0 | 2.4 | 13.12 | 35.93 | 0 | 1.43 | 2.61 | 6.9 |
| 00:02 | 2 | 12 | 69 | 56,695 | 0.44 | 0 | 2.31 | 15.27 | 35.14 | 0 | 0.71 | 3.59 | 5.63 |
| 00:01 | 2 | 11.9 | 69 | 56,715 | 0.42 | 0 | 2.26 | 13.11 | 35.74 | 0 | 2.14 | 3.59 | 5.63 |
| 00:00 | 2 | 12 | 69 | 56,734 | 0.42 | 0 | 2.13 | 14.82 | 34.76 | 0 | 1.43 | 3.11 | 5 |
| Sunday 23 August 2026 | |||||||||||||
| 23:58 | 2 | 12 | 69 | 56,769 | 0.42 | 0 | 2.28 | 15.23 | 34.65 | 0 | 0.71 | 2.62 | 4.36 |
| 23:54 | 2 | 12.1 | 69 | 56,805 | 0.47 | 0 | 3.15 | 23.23 | 27.07 | 0 | 1.43 | 3.61 | 6.89 |
| 23:53 | 2 | 12.1 | 68 | 56,824 | 0.61 | 0 | 3.07 | 26.72 | 22.44 | 0 | 0.71 | 3.12 | 4.99 |
| 23:50 | 2 | 12.2 | 68 | 56,877 | 0.45 | 0 | 2.48 | 21.73 | 29.36 | 0 | 2.14 | 3.62 | 5.62 |
| 23:48 | 2 | 12.2 | 68 | 56,909 | 0.48 | 0 | 2.52 | 26.28 | 22.82 | 0 | 1.43 | 3.13 | 4.98 |
| 23:40 | 2 | 12.3 | 68 | 57,009 | 0.39 | 0 | 2.25 | 14.75 | 37.52 | 0 | 1.43 | 4.14 | 6.25 |
| 23:39 | 2 | 12.4 | 68 | 57,018 | 0.4 | 0 | 2.22 | 13.44 | 38.96 | 0 | 2.14 | 3.65 | 5.61 |
| 23:38 | 2 | 12.4 | 68 | 57,029 | 0.39 | 0 | 2.22 | 14.2 | 38.33 | 0 | 1.43 | 3.65 | 5.61 |
| 23:37 | 2 | 12.4 | 68 | 57,039 | 0.4 | 0 | 2.44 | 15.51 | 37.48 | 0 | 1.43 | 3.66 | 5.61 |
| 23:36 | 2 | 12.4 | 68 | 57,053 | 0.41 | 0 | 2.61 | 17.79 | 35.74 | 0 | 1.43 | 2.68 | 4.32 |
| 23:35 | 2 | 12.4 | 68 | 57,065 | 0.41 | 0 | 2.66 | 23.33 | 29.33 | 0 | 0.71 | 2.68 | 4.32 |
| 23:34 | 2 | 12.5 | 68 | 57,078 | 0.41 | 0 | 2.99 | 17.27 | 37.08 | 0 | 1.43 | 3.17 | 4.96 |
| 23:33 | 2 | 12.5 | 67 | 57,091 | 0.38 | 0 | 2.59 | 13.28 | 40 | 0 | 0.71 | 2.69 | 4.32 |
| 23:32 | 2 | 12.5 | 67 | 57,104 | 0.38 | 0 | 2.56 | 12.59 | 40.69 | 0 | 0 | 2.69 | 4.32 |